Hlavní strana
METAR-TAF:

METAR-TAF

Letiště :

Mitiga International Airport

Tripolis, Libye

zeměpisná šířka: 32-54N, zeměpisná délka: 13-17E, výška: 11 m

METAR: chybějící

Čas: 02:10 (00:10 UTC)

Předpověď počasí

Zpráva byla vytvořena před 13 hodinami a 10 minutami, v 11:00 UTC
Předpověď platná od 22 v 12 UTC do 23 v 12 UTC
vítr z různých směrů 2 kt
Viditelnost 10 km a více
Skoro jasno ve výšce 2500 ft
Změna
od 22 v 16 UTC do 22 v 18 UTC
Jihojihovýchodní vítr 10 kt

TAF: HLLM 221100Z 2212/2312 VRB02KT 9999 FEW025 BECMG 2216/2218 16010KT

Stav a předpovědi počasí z více než 4 000 letišť (zprávy METAR a TAF).

Červené a žluté tečky na mapě představují dostupné meteorologické stanice.

Když kurzor umístíte na tečku, zobrazí se název stanice.

Pak kliknutím zobrazíte stav a předpověď počasí.

Chcete-li změnit mapu, kliknutím na zelené tlačítko se znaménkem +mapu přiblížíte, kliknutím na zelené tlačítko se znaménkem – mapu oddálíte a kliknutím na zelené šipky přejdete na sousední mapy.


METAR-TAF: